createdAt,value
2018-05-02T00:00:35.713Z,98860.13
2018-05-02T00:03:05.048Z,98857.16
2018-05-02T00:05:34.591Z,98850.39
2018-05-02T00:08:04.222Z,98852.98
2018-05-02T00:10:33.866Z,98846.48
2018-05-02T00:13:03.008Z,98847.72
2018-05-02T00:15:32.571Z,98834.13
2018-05-02T00:18:02.414Z,98832.63
2018-05-02T00:20:32.167Z,98831.91
2018-05-02T00:23:01.736Z,98829.33
2018-05-02T00:25:31.292Z,98827.46
2018-05-02T00:28:00.846Z,98825.21
2018-05-02T00:30:30.443Z,98828.33
2018-05-02T00:32:59.997Z,98826.70
2018-05-02T00:35:29.567Z,98825.06
2018-05-02T00:37:59.022Z,98824.22
2018-05-02T00:40:28.594Z,98826.45
2018-05-02T00:42:58.173Z,98835.21
2018-05-02T00:45:27.728Z,98830.38
2018-05-02T00:47:57.323Z,98828.16
2018-05-02T00:50:26.876Z,98833.84
2018-05-02T00:52:56.445Z,98825.27
2018-05-02T00:55:26.870Z,98829.30
2018-05-02T00:57:56.532Z,98822.94
2018-05-02T01:00:26.103Z,98825.82
2018-05-02T01:02:55.705Z,98824.86
2018-05-02T01:05:25.262Z,98823.95
2018-05-02T01:07:54.611Z,98829.81
2018-05-02T01:10:24.431Z,98830.99
2018-05-02T01:12:54.009Z,98838.50
2018-05-02T01:15:23.555Z,98838.50
2018-05-02T01:17:53.127Z,98844.69
2018-05-02T01:20:22.718Z,98838.06
2018-05-02T01:22:52.307Z,98844.38
2018-05-02T01:25:21.618Z,98837.38
2018-05-02T01:27:51.188Z,98842.97
2018-05-02T01:30:20.755Z,98847.73
2018-05-02T01:32:50.331Z,98851.52
2018-05-02T01:35:19.894Z,98845.48
2018-05-02T01:37:49.410Z,98844.80
2018-05-02T01:40:18.959Z,98852.63
2018-05-02T01:42:48.522Z,98853.49
2018-05-02T01:45:18.081Z,98857.17
2018-05-02T01:47:47.673Z,98860.36
2018-05-02T01:50:17.231Z,98861.23
2018-05-02T01:52:46.792Z,98857.77
2018-05-02T01:55:16.423Z,98863.73
2018-05-02T01:57:46.003Z,98859.64
2018-05-02T02:00:15.567Z,98857.33
2018-05-02T02:02:44.927Z,98859.09
2018-05-02T02:05:14.480Z,98861.27
2018-05-02T02:07:44.002Z,98866.22
2018-05-02T02:10:13.573Z,98864.87
2018-05-02T02:12:43.100Z,98865.31
2018-05-02T02:15:12.451Z,98871.83
2018-05-02T02:17:42.019Z,98876.50
2018-05-02T02:20:11.575Z,98879.36
2018-05-02T02:22:41.164Z,98878.05
2018-05-02T02:25:10.786Z,98873.41
2018-05-02T02:27:40.343Z,98877.84
2018-05-02T02:30:09.905Z,98880.58
2018-05-02T02:32:39.477Z,98877.34
2018-05-02T02:35:09.025Z,98883.08
2018-05-02T02:37:38.602Z,98881.92
2018-05-02T02:40:08.256Z,98879.21
2018-05-02T02:42:37.599Z,98874.61
2018-05-02T02:45:07.158Z,98869.75
2018-05-02T02:47:36.705Z,98870.90
2018-05-02T02:50:05.955Z,98871.30
2018-05-02T02:52:35.504Z,98873.34
2018-05-02T02:55:04.866Z,98870.89
2018-05-02T02:57:34.572Z,98876.98
2018-05-02T03:00:03.921Z,98876.58
2018-05-02T03:02:33.508Z,98880.56
2018-05-02T03:05:03.072Z,98873.25
2018-05-02T03:07:32.647Z,98875.74
2018-05-02T03:10:02.198Z,98876.37
2018-05-02T03:12:31.862Z,98877.39
2018-05-02T03:15:01.429Z,98871.13
2018-05-02T03:17:31.002Z,98873.41
2018-05-02T03:20:00.561Z,98873.98
2018-05-02T03:22:30.141Z,98877.36
2018-05-02T03:24:59.770Z,98876.20
2018-05-02T03:27:29.329Z,98877.19
2018-05-02T03:29:58.892Z,98883.32
2018-05-02T03:32:28.464Z,98883.42
2018-05-02T03:34:58.016Z,98888.63
2018-05-02T03:37:27.579Z,98881.00
2018-05-02T03:39:57.138Z,98879.75
2018-05-02T03:42:26.684Z,98872.25
2018-05-02T03:44:56.259Z,98875.22
2018-05-02T03:47:25.861Z,98874.94
2018-05-02T03:49:55.208Z,98876.72
2018-05-02T03:52:24.788Z,98869.48
2018-05-02T03:54:54.399Z,98872.90
2018-05-02T03:57:23.962Z,98877.39
2018-05-02T04:00:04.327Z,98873.72
2018-05-02T04:02:44.946Z,98879.16
2018-05-02T04:05:25.644Z,98878.45
2018-05-02T04:07:54.943Z,98882.80
2018-05-02T04:10:24.505Z,98887.27
2018-05-02T04:12:55.483Z,98888.36
2018-05-02T04:15:25.041Z,98899.22
2018-05-02T04:17:54.607Z,98891.05
2018-05-02T04:20:24.306Z,98895.23
2018-05-02T04:22:54.062Z,98895.46
2018-05-02T04:25:23.779Z,98902.75
2018-05-02T04:27:53.334Z,98906.28
2018-05-02T04:30:22.887Z,98907.06
2018-05-02T04:32:52.454Z,98909.66
2018-05-02T04:35:22.027Z,98912.16
2018-05-02T04:37:51.812Z,98917.61
2018-05-02T04:40:21.355Z,98915.02
2018-05-02T04:42:50.956Z,98911.58
2018-05-02T04:45:20.553Z,98918.48
2018-05-02T04:47:50.114Z,98912.13
2018-05-02T04:50:19.670Z,98913.16
2018-05-02T04:52:49.324Z,98917.98
2018-05-02T04:55:19.141Z,98921.48
2018-05-02T04:57:48.844Z,98916.99
2018-05-02T05:00:18.422Z,98919.17
2018-05-02T05:02:47.987Z,98923.99
2018-05-02T05:05:17.539Z,98926.09
2018-05-02T05:07:47.094Z,98930.82
2018-05-02T05:10:16.662Z,98931.23
2018-05-02T05:12:46.233Z,98940.69
2018-05-02T05:15:15.807Z,98942.56
2018-05-02T05:17:45.379Z,98943.52
2018-05-02T05:20:14.952Z,98940.95
2018-05-02T05:22:44.521Z,98942.23
2018-05-02T05:25:14.116Z,98943.60
2018-05-02T05:27:43.747Z,98946.05
2018-05-02T05:30:13.370Z,98942.73
2018-05-02T05:32:42.942Z,98952.16
2018-05-02T05:35:12.521Z,98953.20
2018-05-02T05:37:42.080Z,98951.33
2018-05-02T05:40:11.646Z,98944.81
2018-05-02T05:42:41.240Z,98947.63
2018-05-02T05:45:10.825Z,98941.80
2018-05-02T05:47:40.575Z,98944.34
2018-05-02T05:50:10.137Z,98950.20
2018-05-02T05:52:39.686Z,98948.36
2018-05-02T05:55:09.272Z,98943.97
2018-05-02T05:57:38.899Z,98945.50
2018-05-02T06:00:08.478Z,98947.73
2018-05-02T06:02:38.131Z,98948.95
2018-05-02T06:05:07.769Z,98947.27
2018-05-02T06:07:37.486Z,98942.30
2018-05-02T06:10:07.039Z,98947.70
2018-05-02T06:12:36.676Z,98940.00
2018-05-02T06:15:06.405Z,98939.20
2018-05-02T06:17:35.758Z,98935.27
2018-05-02T06:20:04.862Z,98933.09
2018-05-02T06:22:34.497Z,98933.37
2018-05-02T06:25:03.850Z,98929.07
2018-05-02T06:27:33.244Z,98928.19
2018-05-02T06:30:02.852Z,98927.39
2018-05-02T06:32:32.432Z,98922.34
2018-05-02T06:35:02.532Z,98929.38
2018-05-02T06:37:32.119Z,98935.11
2018-05-02T06:40:01.898Z,98932.67
2018-05-02T06:42:31.459Z,98935.89
2018-05-02T06:45:01.027Z,98935.36
2018-05-02T06:47:30.587Z,98930.30
2018-05-02T06:50:00.151Z,98930.08
2018-05-02T06:52:29.766Z,98928.90
2018-05-02T06:54:59.327Z,98925.01
2018-05-02T06:57:28.948Z,98920.96
2018-05-02T06:59:58.516Z,98915.91
2018-05-02T07:02:28.088Z,98919.25
2018-05-02T07:04:57.714Z,98915.42
2018-05-02T07:07:27.291Z,98918.30
2018-05-02T07:09:56.881Z,98920.34
2018-05-02T07:12:26.458Z,98922.12
2018-05-02T07:14:56.029Z,98911.59
2018-05-02T07:17:25.587Z,98913.40
2018-05-02T07:19:55.186Z,98919.56
2018-05-02T07:22:24.760Z,98919.77
2018-05-02T07:24:54.533Z,98920.58
2018-05-02T07:27:24.219Z,98919.31
2018-05-02T07:29:53.785Z,98919.70
2018-05-02T07:32:23.366Z,98923.67
2018-05-02T07:34:53.041Z,98925.20
2018-05-02T07:37:22.604Z,98921.23
2018-05-02T07:39:52.213Z,98924.72
2018-05-02T07:42:21.779Z,98926.26
2018-05-02T07:44:51.338Z,98919.84
2018-05-02T07:47:20.934Z,98925.48
2018-05-02T07:49:50.577Z,98924.16
2018-05-02T07:52:20.158Z,98924.81
2018-05-02T07:54:49.740Z,98922.41
2018-05-02T07:57:19.357Z,98922.03
2018-05-02T07:59:49.108Z,98921.50
2018-05-02T08:02:18.685Z,98922.62
2018-05-02T08:04:48.257Z,98915.80
2018-05-02T08:07:17.832Z,98920.65
2018-05-02T08:09:47.398Z,98915.59
2018-05-02T08:12:17.023Z,98916.27
2018-05-02T08:14:46.612Z,98912.51
2018-05-02T08:17:16.225Z,98911.97
2018-05-02T08:19:45.788Z,98910.09
2018-05-02T08:22:15.363Z,98910.16
2018-05-02T08:24:44.953Z,98908.92
2018-05-02T08:27:14.514Z,98913.67
2018-05-02T08:29:44.087Z,98912.88
2018-05-02T08:32:13.844Z,98911.06
2018-05-02T08:34:43.468Z,98909.80
2018-05-02T08:37:13.102Z,98906.89
2018-05-02T08:39:42.691Z,98896.13
2018-05-02T08:42:12.339Z,98890.94
2018-05-02T08:44:41.911Z,98901.45
2018-05-02T08:47:11.484Z,98895.06
2018-05-02T08:49:42.969Z,98894.33
2018-05-02T08:52:12.857Z,98885.30
2018-05-02T08:54:42.422Z,98891.22
2018-05-02T08:57:11.999Z,98888.14
2018-05-02T08:59:41.592Z,98893.19
2018-05-02T09:02:10.933Z,98883.42
2018-05-02T09:04:40.520Z,98884.30
2018-05-02T09:07:10.106Z,98884.12
2018-05-02T09:09:39.671Z,98884.37
2018-05-02T09:12:09.260Z,98878.15
2018-05-02T09:14:38.849Z,98883.20
2018-05-02T09:17:09.355Z,98881.16
2018-05-02T09:19:39.021Z,98876.47
2018-05-02T09:22:08.751Z,98881.58
2018-05-02T09:24:38.348Z,98866.62
2018-05-02T09:27:07.919Z,98865.42
2018-05-02T09:29:37.474Z,98869.08
2018-05-02T09:32:07.048Z,98874.28
2018-05-02T09:34:36.728Z,98873.41
2018-05-02T09:37:06.293Z,98869.77
2018-05-02T09:39:35.879Z,98868.96
2018-05-02T09:42:05.444Z,98864.70
2018-05-02T09:44:35.040Z,98855.92
2018-05-02T09:47:04.611Z,98855.97
2018-05-02T09:49:34.199Z,98856.59
2018-05-02T09:52:03.931Z,98858.36
2018-05-02T09:54:33.632Z,98850.43
2018-05-02T09:57:03.211Z,98848.70
2018-05-02T09:59:32.785Z,98845.05
2018-05-02T10:02:02.386Z,98837.14
2018-05-02T10:04:32.034Z,98837.08
2018-05-02T10:07:01.766Z,98832.20
2018-05-02T10:09:31.340Z,98829.61
2018-05-02T10:12:00.932Z,98828.05
2018-05-02T10:14:30.668Z,98821.83
2018-05-02T10:17:00.411Z,98820.63
2018-05-02T10:19:29.991Z,98822.98
2018-05-02T10:21:59.719Z,98819.25
2018-05-02T10:24:29.885Z,98817.23
2018-05-02T10:26:59.805Z,98815.73
2018-05-02T10:29:29.771Z,98814.52
2018-05-02T10:31:59.364Z,98810.11
2018-05-02T10:34:28.930Z,98803.95
2018-05-02T10:36:58.509Z,98809.77
2018-05-02T10:39:28.300Z,98812.16
2018-05-02T10:41:57.868Z,98812.50
2018-05-02T10:44:29.809Z,98802.70
2018-05-02T10:46:59.479Z,98801.62
2018-05-02T10:49:29.062Z,98804.98
2018-05-02T10:52:01.491Z,98803.25
2018-05-02T10:54:31.481Z,98801.59
2018-05-02T10:57:01.059Z,98804.06
2018-05-02T10:59:33.475Z,98804.73
2018-05-02T11:02:03.069Z,98792.24
2018-05-02T11:04:32.636Z,98797.27
2018-05-02T11:07:02.523Z,98805.03
2018-05-02T11:09:31.770Z,98802.39
2018-05-02T11:12:01.359Z,98791.89
2018-05-02T11:14:31.158Z,98796.81
2018-05-02T11:17:00.970Z,98796.72
2018-05-02T11:19:32.060Z,98799.85
2018-05-02T11:22:01.725Z,98792.53
2018-05-02T11:24:31.452Z,98793.93
2018-05-02T11:27:01.293Z,98797.58
2018-05-02T11:29:30.883Z,98797.88
2018-05-02T11:32:00.491Z,98794.90
2018-05-02T11:34:30.052Z,98800.20
2018-05-02T11:36:59.609Z,98798.58
2018-05-02T11:39:29.192Z,98802.13
2018-05-02T11:41:58.819Z,98797.32
2018-05-02T11:44:28.416Z,98792.70
2018-05-02T11:47:00.820Z,98787.30
2018-05-02T11:49:32.497Z,98783.06
2018-05-02T11:52:04.147Z,98788.31
2018-05-02T11:54:36.715Z,98779.80
2018-05-02T11:57:10.218Z,98780.59
2018-05-02T11:59:41.167Z,98774.01
2018-05-02T12:02:13.525Z,98780.91
2018-05-02T12:04:43.554Z,98766.91
2018-05-02T12:07:16.043Z,98764.09
2018-05-02T12:09:48.276Z,98770.24
2018-05-02T12:12:18.144Z,98763.15
2018-05-02T12:14:47.732Z,98760.09
2018-05-02T12:17:17.303Z,98763.73
2018-05-02T12:19:46.883Z,98751.03
2018-05-02T12:22:16.499Z,98743.07
2018-05-02T12:24:46.084Z,98737.97
2018-05-02T12:27:15.674Z,98739.17
2018-05-02T12:29:45.255Z,98738.22
2018-05-02T12:32:14.962Z,98732.27
2018-05-02T12:34:44.226Z,98727.41
2018-05-02T12:37:13.801Z,98723.93
2018-05-02T12:39:43.474Z,98719.90
2018-05-02T12:42:13.120Z,98713.05
2018-05-02T12:44:42.694Z,98712.45
2018-05-02T12:47:12.401Z,98709.09
2018-05-02T12:49:42.126Z,98705.25
2018-05-02T12:52:11.833Z,98702.91
2018-05-02T12:54:41.400Z,98696.39
2018-05-02T12:57:10.977Z,98692.05
2018-05-02T12:59:40.562Z,98696.30
2018-05-02T13:02:10.188Z,98692.47
2018-05-02T13:04:39.774Z,98684.55
2018-05-02T13:07:09.348Z,98687.62
2018-05-02T13:09:38.930Z,98685.75
2018-05-02T13:12:08.490Z,98684.52
2018-05-02T13:14:38.075Z,98683.40
2018-05-02T13:17:07.877Z,98677.69
2018-05-02T13:19:37.441Z,98671.07
2018-05-02T13:22:07.034Z,98667.61
2018-05-02T13:24:36.624Z,98661.78
2018-05-02T13:27:06.574Z,98664.97
2018-05-02T13:29:36.264Z,98657.70
2018-05-02T13:32:05.852Z,98654.48
2018-05-02T13:34:35.450Z,98655.12
2018-05-02T13:37:05.029Z,98642.48
2018-05-02T13:39:34.585Z,98642.70
2018-05-02T13:42:04.189Z,98633.70
2018-05-02T13:44:33.771Z,98636.86
2018-05-02T13:47:03.354Z,98632.06
2018-05-02T13:49:32.927Z,98632.85
2018-05-02T13:52:02.508Z,98630.76
2018-05-02T13:54:32.202Z,98624.46
2018-05-02T13:57:01.812Z,98626.03
2018-05-02T13:59:31.420Z,98610.88
2018-05-02T14:02:01.032Z,98616.23
2018-05-02T14:04:30.615Z,98610.00
2018-05-02T14:07:00.170Z,98613.58
2018-05-02T14:09:29.866Z,98611.09
2018-05-02T14:11:59.456Z,98604.20
2018-05-02T14:14:29.020Z,98600.30
2018-05-02T14:16:58.656Z,98587.56
2018-05-02T14:19:28.232Z,98582.73
2018-05-02T14:21:57.927Z,98574.39
2018-05-02T14:24:27.526Z,98584.03
2018-05-02T14:26:57.100Z,98583.23
2018-05-02T14:29:26.678Z,98577.17
2018-05-02T14:31:56.285Z,98583.14
2018-05-02T14:34:25.942Z,98584.69
2018-05-02T14:36:55.739Z,98581.19
2018-05-02T14:39:25.336Z,98578.38
2018-05-02T14:41:54.910Z,98586.91
2018-05-02T14:44:24.545Z,98576.30
2018-05-02T14:46:54.395Z,98570.02
2018-05-02T14:49:23.969Z,98576.62
2018-05-02T14:51:53.536Z,98577.34
2018-05-02T14:54:23.156Z,98559.05
2018-05-02T14:56:52.816Z,98554.23
2018-05-02T14:59:22.497Z,98564.51
2018-05-02T15:01:52.208Z,98556.11
2018-05-02T15:04:22.823Z,98547.13
2018-05-02T15:06:52.428Z,98538.16
2018-05-02T15:09:22.014Z,98534.41
2018-05-02T15:11:51.585Z,98535.63
2018-05-02T15:14:21.187Z,98541.42
2018-05-02T15:16:50.804Z,98544.83
2018-05-02T15:19:20.371Z,98541.70
2018-05-02T15:21:49.958Z,98552.23
2018-05-02T15:24:19.524Z,98545.92
2018-05-02T15:26:49.150Z,98531.44
2018-05-02T15:29:18.734Z,98533.16
2018-05-02T15:31:48.296Z,98523.77
2018-05-02T15:34:18.055Z,98518.26
2018-05-02T15:36:47.897Z,98522.73
2018-05-02T15:39:17.480Z,98514.37
2018-05-02T15:41:47.084Z,98511.81
2018-05-02T15:44:16.727Z,98505.67
2018-05-02T15:46:45.981Z,98512.27
2018-05-02T15:49:15.789Z,98507.48
2018-05-02T15:51:45.540Z,98502.89
2018-05-02T15:54:15.102Z,98502.01
2018-05-02T15:56:44.726Z,98497.81
2018-05-02T15:59:14.371Z,98489.34
2018-05-02T16:01:43.931Z,98478.50
2018-05-02T16:04:13.641Z,98479.29
2018-05-02T16:06:43.210Z,98482.06
2018-05-02T16:09:12.923Z,98471.63
2018-05-02T16:11:42.551Z,98472.45
2018-05-02T16:14:12.144Z,98477.49
2018-05-02T16:16:41.785Z,98474.42
2018-05-02T16:19:11.132Z,98467.15
2018-05-02T16:21:40.960Z,98461.33
2018-05-02T16:24:10.816Z,98462.33
2018-05-02T16:26:40.432Z,98470.65
2018-05-02T16:29:10.069Z,98474.41
2018-05-02T16:31:39.755Z,98467.20
2018-05-02T16:34:09.349Z,98462.86
2018-05-02T16:36:38.970Z,98456.30
2018-05-02T16:39:08.547Z,98457.84
2018-05-02T16:41:38.424Z,98462.81
2018-05-02T16:44:08.076Z,98461.00
2018-05-02T16:46:37.827Z,98448.48
2018-05-02T16:49:07.395Z,98448.38
2018-05-02T16:51:37.078Z,98450.88
2018-05-02T16:54:06.688Z,98449.75
2018-05-02T16:56:36.429Z,98454.97
2018-05-02T16:59:06.010Z,98456.02
2018-05-02T17:01:35.588Z,98451.93
2018-05-02T17:04:05.446Z,98440.20
2018-05-02T17:06:35.227Z,98445.02
2018-05-02T17:09:04.334Z,98450.58
2018-05-02T17:11:34.234Z,98453.89
2018-05-02T17:14:03.814Z,98441.50
2018-05-02T17:16:33.383Z,98438.31
2018-05-02T17:19:02.954Z,98449.38
2018-05-02T17:21:32.633Z,98457.61
2018-05-02T17:24:02.372Z,98474.52
2018-05-02T17:26:32.181Z,98478.18
2018-05-02T17:29:01.984Z,98476.45
2018-05-02T17:31:31.681Z,98477.92
2018-05-02T17:34:01.500Z,98465.38
2018-05-02T17:36:31.371Z,98469.09
2018-05-02T17:39:00.978Z,98465.50
2018-05-02T17:41:30.794Z,98464.81
2018-05-02T17:44:00.379Z,98469.12
2018-05-02T17:46:29.976Z,98468.84
2018-05-02T17:48:59.836Z,98468.94
2018-05-02T17:51:29.414Z,98473.20
2018-05-02T17:53:58.984Z,98473.02
2018-05-02T17:56:28.321Z,98474.04
2018-05-02T17:58:57.912Z,98471.65
2018-05-02T18:01:27.476Z,98458.10
2018-05-02T18:03:57.077Z,98450.80
2018-05-02T18:06:26.683Z,98442.37
2018-05-02T18:08:56.244Z,98440.92
2018-05-02T18:11:25.833Z,98435.77
2018-05-02T18:14:01.770Z,98452.98
2018-05-02T18:16:31.358Z,98452.77
2018-05-02T18:19:00.926Z,98471.09
2018-05-02T18:21:30.805Z,98491.98
2018-05-02T18:24:00.482Z,98513.64
2018-05-02T18:26:30.090Z,98547.03
2018-05-02T18:28:59.691Z,98574.77
2018-05-02T18:31:29.239Z,98558.55
2018-05-02T18:33:58.803Z,98535.67
2018-05-02T18:36:28.427Z,98543.90
2018-05-02T18:38:58.159Z,98548.18
2018-05-02T18:41:27.931Z,98550.78
2018-05-02T18:43:57.502Z,98551.52
2018-05-02T18:46:27.068Z,98539.01
2018-05-02T18:48:56.767Z,98526.16
2018-05-02T18:51:26.329Z,98522.80
2018-05-02T18:53:55.930Z,98527.06
2018-05-02T18:56:25.639Z,98535.64
2018-05-02T18:58:55.211Z,98553.22
2018-05-02T19:01:24.811Z,98561.22
2018-05-02T19:03:54.426Z,98567.27
2018-05-02T19:06:24.191Z,98566.53
2018-05-02T19:08:53.813Z,98561.91
2018-05-02T19:11:23.399Z,98571.70
2018-05-02T19:13:58.427Z,98573.12
2018-05-02T19:16:28.043Z,98569.47
2018-05-02T19:19:02.923Z,98562.80
2018-05-02T19:21:32.536Z,98562.38
2018-05-02T19:24:02.122Z,98561.00
2018-05-02T19:26:37.329Z,98553.78
2018-05-02T19:29:06.887Z,98549.68
2018-05-02T19:31:41.921Z,98556.26
2018-05-02T19:34:11.527Z,98561.73
2018-05-02T19:36:41.093Z,98586.73
2018-05-02T19:39:10.663Z,98591.30
2018-05-02T19:41:45.702Z,98582.81
2018-05-02T19:44:15.080Z,98579.67
2018-05-02T19:46:44.810Z,98601.26
2018-05-02T19:49:14.393Z,98671.32
2018-05-02T19:51:49.236Z,98709.73
2018-05-02T19:54:18.786Z,98733.95
2018-05-02T19:56:48.363Z,98701.68
2018-05-02T19:59:18.148Z,98685.16
2018-05-02T20:01:53.220Z,98662.17
2018-05-02T20:04:23.686Z,98666.66
2018-05-02T20:06:54.373Z,98659.06
2018-05-02T20:09:29.309Z,98661.55
2018-05-02T20:12:04.339Z,98678.56
2018-05-02T20:14:33.915Z,98679.95
2018-05-02T20:17:03.470Z,98659.69
2018-05-02T20:19:33.091Z,98647.75
2018-05-02T20:22:02.680Z,98627.67
2018-05-02T20:24:32.303Z,98634.19
2018-05-02T20:27:08.779Z,98643.03
2018-05-02T20:29:38.446Z,98658.48
2018-05-02T20:32:08.098Z,98685.74
2018-05-02T20:34:37.688Z,98710.44
2018-05-02T20:37:07.313Z,98721.25
2018-05-02T20:39:37.090Z,98723.36
2018-05-02T20:42:06.705Z,98719.07
2018-05-02T20:44:36.419Z,98786.58
2018-05-02T20:47:06.046Z,98828.35
2018-05-02T20:49:35.617Z,98745.84
2018-05-02T20:52:05.192Z,98703.02
2018-05-02T20:54:34.772Z,98699.68
2018-05-02T20:57:04.390Z,98691.86
2018-05-02T20:59:34.017Z,98722.27
2018-05-02T21:02:03.580Z,98747.00
2018-05-02T21:04:33.151Z,98753.56
2018-05-02T21:07:02.791Z,98729.24
2018-05-02T21:09:32.363Z,98720.95
2018-05-02T21:12:01.934Z,98717.40
2018-05-02T21:14:31.579Z,98705.37
2018-05-02T21:17:01.340Z,98716.38
2018-05-02T21:19:31.102Z,98710.27
2018-05-02T21:22:00.664Z,98698.98
2018-05-02T21:24:30.354Z,98699.79
2018-05-02T21:26:59.922Z,98719.63
2018-05-02T21:29:29.504Z,98731.94
2018-05-02T21:31:59.088Z,98741.30
2018-05-02T21:34:28.659Z,98749.97
2018-05-02T21:36:58.219Z,98755.81
2018-05-02T21:39:27.790Z,98766.91
2018-05-02T21:41:57.364Z,98765.53
2018-05-02T21:44:27.000Z,98769.33
2018-05-02T21:46:56.768Z,98769.03
2018-05-02T21:49:26.402Z,98767.63
2018-05-02T21:51:55.982Z,98769.94
2018-05-02T21:54:25.555Z,98742.18
2018-05-02T21:56:55.118Z,98712.28
2018-05-02T21:59:24.710Z,98714.18
2018-05-02T22:01:54.286Z,98705.75
2018-05-02T22:04:23.854Z,98700.83
2018-05-02T22:06:53.454Z,98696.34
2018-05-02T22:09:23.203Z,98699.88
2018-05-02T22:11:52.766Z,98702.59
2018-05-02T22:14:22.331Z,98711.33
2018-05-02T22:16:51.902Z,98710.12
2018-05-02T22:19:21.477Z,98718.98
2018-05-02T22:21:51.042Z,98729.48
2018-05-02T22:24:20.603Z,98722.84
2018-05-02T22:26:50.188Z,98720.53
2018-05-02T22:29:19.766Z,98725.59
2018-05-02T22:31:49.447Z,98722.19
2018-05-02T22:34:18.996Z,98713.49
2018-05-02T22:36:48.570Z,98718.49
2018-05-02T22:39:18.144Z,98719.85
2018-05-02T22:41:47.700Z,98714.69
2018-05-02T22:44:17.270Z,98715.50
2018-05-02T22:46:46.845Z,98722.16
2018-05-02T22:49:16.655Z,98709.77
2018-05-02T22:51:46.296Z,98705.69
2018-05-02T22:54:15.984Z,98696.31
2018-05-02T22:56:45.564Z,98699.95
2018-05-02T22:59:15.131Z,98694.77
2018-05-02T23:01:44.702Z,98693.11
2018-05-02T23:04:14.612Z,98691.48
2018-05-02T23:06:44.176Z,98687.91
2018-05-02T23:09:13.732Z,98683.37
2018-05-02T23:11:43.301Z,98684.56
2018-05-02T23:14:12.860Z,98680.59
2018-05-02T23:16:42.648Z,98686.78
2018-05-02T23:19:12.363Z,98678.28
2018-05-02T23:21:41.931Z,98680.70
2018-05-02T23:24:11.510Z,98676.31
2018-05-02T23:26:41.084Z,98667.98
2018-05-02T23:29:10.631Z,98667.56
2018-05-02T23:31:40.212Z,98665.77
2018-05-02T23:34:09.531Z,98654.61
2018-05-02T23:36:39.107Z,98643.55
2018-05-02T23:39:08.738Z,98636.06
2018-05-02T23:41:38.300Z,98639.14
2018-05-02T23:44:07.881Z,98643.73
2018-05-02T23:46:37.440Z,98649.45
2018-05-02T23:49:07.043Z,98655.81
2018-05-02T23:51:36.623Z,98652.27
2018-05-02T23:54:06.400Z,98654.34
2018-05-02T23:56:36.040Z,98659.52
2018-05-02T23:59:05.607Z,98663.47
